createdAt,value
2023-02-11T00:02:19.873Z,0
2023-02-11T00:07:26.015Z,0
2023-02-11T00:12:32.052Z,0
2023-02-11T00:17:38.193Z,0
2023-02-11T00:22:44.235Z,0
2023-02-11T00:27:50.325Z,0
2023-02-11T00:32:56.494Z,0
2023-02-11T00:38:02.647Z,0
2023-02-11T00:43:08.786Z,0
2023-02-11T00:48:14.936Z,0
2023-02-11T00:53:21.108Z,0
2023-02-11T00:58:26.257Z,0
2023-02-11T01:03:32.357Z,0
2023-02-11T01:08:38.446Z,0
2023-02-11T01:13:44.538Z,0
2023-02-11T01:18:50.625Z,0
2023-02-11T01:23:56.758Z,0
2023-02-11T01:29:02.836Z,0
2023-02-11T01:34:08.895Z,0
2023-02-11T01:39:14.987Z,0
2023-02-11T01:44:21.082Z,0
2023-02-11T01:49:27.296Z,0
2023-02-11T01:54:33.271Z,0
2023-02-11T01:59:39.351Z,0
2023-02-11T02:04:45.449Z,0
2023-02-11T02:09:51.605Z,0
2023-02-11T02:14:57.622Z,0
2023-02-11T02:20:03.719Z,0
2023-02-11T02:25:09.808Z,0
2023-02-11T02:30:16.058Z,0
2023-02-11T02:35:22.048Z,0
2023-02-11T02:40:28.115Z,0
2023-02-11T02:45:34.196Z,0
2023-02-11T02:50:40.285Z,0
2023-02-11T02:55:46.379Z,0
2023-02-11T03:00:52.462Z,0
2023-02-11T03:05:57.571Z,0
2023-02-11T03:11:03.661Z,0
2023-02-11T03:16:09.746Z,0
2023-02-11T03:21:15.844Z,0
2023-02-11T03:26:21.946Z,0
2023-02-11T03:31:28.030Z,0
2023-02-11T03:36:34.111Z,0
2023-02-11T03:41:40.204Z,0
2023-02-11T03:46:46.303Z,0
2023-02-11T03:51:52.394Z,0
2023-02-11T03:56:58.479Z,0
2023-02-11T04:02:04.571Z,0
2023-02-11T04:07:10.672Z,0
2023-02-11T04:12:16.752Z,0
2023-02-11T04:17:22.856Z,0
2023-02-11T04:22:28.938Z,0
2023-02-11T04:27:35.042Z,0
2023-02-11T04:32:41.116Z,0
2023-02-11T04:37:47.213Z,0
2023-02-11T04:42:53.316Z,0
2023-02-11T04:47:59.436Z,0
2023-02-11T04:53:05.529Z,0
2023-02-11T04:58:11.576Z,0
2023-02-11T05:03:17.675Z,0
2023-02-11T05:08:23.759Z,0
2023-02-11T05:13:29.908Z,0
2023-02-11T05:18:36.095Z,0
2023-02-11T05:23:42.228Z,0
2023-02-11T05:28:48.372Z,0
2023-02-11T05:33:54.533Z,0
2023-02-11T05:39:00.685Z,0
2023-02-11T05:44:06.836Z,0
2023-02-11T05:49:12.999Z,0
2023-02-11T05:54:19.139Z,0
2023-02-11T05:59:25.298Z,0
2023-02-11T06:04:31.458Z,0
2023-02-11T06:09:37.636Z,0
2023-02-11T06:14:43.752Z,0
2023-02-11T06:19:50.034Z,0
2023-02-11T06:24:56.299Z,0
2023-02-11T06:30:02.565Z,0
2023-02-11T06:35:08.825Z,0
2023-02-11T06:40:15.091Z,4
2023-02-11T06:45:21.363Z,4
2023-02-11T06:50:27.686Z,8
2023-02-11T06:55:33.892Z,8
2023-02-11T07:00:40.159Z,8
2023-02-11T07:05:46.479Z,8
2023-02-11T07:10:52.691Z,12
2023-02-11T07:15:58.966Z,12
2023-02-11T07:21:05.220Z,16
2023-02-11T07:26:11.709Z,20
2023-02-11T07:31:18.166Z,28
2023-02-11T07:36:24.657Z,32
2023-02-11T07:41:31.120Z,40
2023-02-11T07:46:37.589Z,48
2023-02-11T07:51:44.083Z,48
2023-02-11T07:56:50.539Z,40
2023-02-11T08:01:57.024Z,20
2023-02-11T08:07:03.492Z,20
2023-02-11T08:12:08.884Z,28
2023-02-11T08:17:13.982Z,36
2023-02-11T08:22:20.077Z,36
2023-02-11T08:27:26.168Z,28
2023-02-11T08:32:32.247Z,28
2023-02-11T08:37:38.345Z,28
2023-02-11T08:42:44.437Z,40
2023-02-11T08:47:50.528Z,28
2023-02-11T08:52:56.622Z,40
2023-02-11T08:58:02.707Z,24
2023-02-11T09:03:08.795Z,36
2023-02-11T09:08:14.899Z,40
2023-02-11T09:13:21.002Z,36
2023-02-11T09:18:27.075Z,28
2023-02-11T09:23:33.176Z,36
2023-02-11T09:28:39.285Z,32
2023-02-11T09:33:45.359Z,48
2023-02-11T09:38:51.440Z,32
2023-02-11T09:43:57.546Z,32
2023-02-11T09:49:03.638Z,48
2023-02-11T09:54:09.732Z,48
2023-02-11T09:59:14.845Z,52
2023-02-11T10:04:20.954Z,56
2023-02-11T10:09:27.025Z,44
2023-02-11T10:14:33.125Z,48
2023-02-11T10:19:39.215Z,44
2023-02-11T10:29:51.388Z,56
2023-02-11T10:34:57.482Z,52
2023-02-11T10:40:03.575Z,40
2023-02-11T10:45:09.668Z,40
2023-02-11T10:50:15.908Z,40
2023-02-11T10:55:21.845Z,56
2023-02-11T11:00:27.944Z,40
2023-02-11T11:05:34.255Z,48
2023-02-11T11:10:40.263Z,44
2023-02-11T11:15:46.309Z,40
2023-02-11T11:20:51.488Z,44
2023-02-11T11:25:57.540Z,36
2023-02-11T11:31:03.509Z,36
2023-02-11T11:36:09.608Z,36
2023-02-11T11:41:15.688Z,36
2023-02-11T11:46:21.776Z,44
2023-02-11T11:51:27.869Z,32
2023-02-11T11:56:34.017Z,36
2023-02-11T12:01:39.069Z,44
2023-02-11T12:06:45.181Z,48
2023-02-11T12:11:51.252Z,32
2023-02-11T12:16:57.355Z,48
2023-02-11T12:22:03.444Z,52
2023-02-11T12:27:09.535Z,60
2023-02-11T12:32:15.613Z,60
2023-02-11T12:37:21.707Z,48
2023-02-11T12:42:27.847Z,44
2023-02-11T12:47:33.919Z,48
2023-02-11T12:52:39.994Z,52
2023-02-11T12:57:46.089Z,40
2023-02-11T13:02:52.178Z,72
2023-02-11T13:13:04.369Z,44
2023-02-11T13:18:10.458Z,40
2023-02-11T13:23:16.555Z,32
2023-02-11T13:28:22.654Z,32
2023-02-11T13:33:28.730Z,36
2023-02-11T13:38:34.822Z,44
2023-02-11T13:43:40.922Z,32
2023-02-11T13:48:47.007Z,24
2023-02-11T13:53:53.093Z,28
2023-02-11T13:58:59.176Z,28
2023-02-11T14:04:05.276Z,20
2023-02-11T14:09:11.436Z,24
2023-02-11T14:14:17.617Z,28
2023-02-11T14:19:23.736Z,32
2023-02-11T14:24:29.949Z,24
2023-02-11T14:29:36.048Z,28
2023-02-11T14:34:42.216Z,24
2023-02-11T14:39:48.356Z,20
2023-02-11T14:50:00.656Z,20
2023-02-11T14:55:06.814Z,16
2023-02-11T15:00:12.966Z,16
2023-02-11T15:05:19.131Z,16
2023-02-11T15:10:25.287Z,16
2023-02-11T15:15:31.547Z,12
2023-02-11T15:20:37.805Z,8
2023-02-11T15:25:44.099Z,8
2023-02-11T15:30:50.361Z,8
2023-02-11T15:35:56.617Z,8
2023-02-11T15:41:02.883Z,8
2023-02-11T15:46:09.138Z,8
2023-02-11T15:51:15.413Z,4
2023-02-11T15:56:21.709Z,4
2023-02-11T16:01:27.937Z,0
2023-02-11T16:06:34.208Z,0
2023-02-11T16:11:40.468Z,0
2023-02-11T16:16:46.740Z,0
2023-02-11T16:21:53.226Z,0
2023-02-11T16:26:59.760Z,0
2023-02-11T16:32:06.163Z,0
2023-02-11T16:37:12.710Z,0
2023-02-11T16:42:19.118Z,0
2023-02-11T16:47:25.576Z,0
2023-02-11T16:52:32.052Z,0
2023-02-11T16:57:38.528Z,0
2023-02-11T17:02:44.991Z,0
2023-02-11T17:07:50.397Z,0
2023-02-11T17:12:56.490Z,0
2023-02-11T17:18:02.693Z,0
2023-02-11T17:23:08.668Z,0
2023-02-11T17:28:14.766Z,0
2023-02-11T17:33:20.853Z,0
2023-02-11T17:38:26.938Z,0
2023-02-11T17:43:33.043Z,0
2023-02-11T17:48:39.134Z,0
2023-02-11T17:53:45.237Z,0
2023-02-11T17:58:51.314Z,0
2023-02-11T18:03:57.402Z,0
2023-02-11T18:09:03.585Z,0
2023-02-11T18:14:09.583Z,0
2023-02-11T18:19:15.678Z,0
2023-02-11T18:24:21.777Z,0
2023-02-11T18:29:27.906Z,0
2023-02-11T18:34:33.955Z,0
2023-02-11T18:39:40.045Z,0
2023-02-11T18:44:46.145Z,0
2023-02-11T18:49:52.241Z,0
2023-02-11T18:54:58.334Z,0
2023-02-11T19:00:04.416Z,0
2023-02-11T19:05:10.509Z,0
2023-02-11T19:10:16.614Z,0
2023-02-11T19:15:22.770Z,0
2023-02-11T19:20:28.919Z,0
2023-02-11T19:25:35.060Z,0
2023-02-11T19:30:41.211Z,0
2023-02-11T19:35:47.381Z,0
2023-02-11T19:40:53.525Z,0
2023-02-11T19:45:59.674Z,0
2023-02-11T19:51:05.817Z,0
2023-02-11T19:56:11.991Z,0
2023-02-11T20:01:18.136Z,0
2023-02-11T20:06:24.286Z,0
2023-02-11T20:11:30.438Z,0
2023-02-11T20:16:36.592Z,0
2023-02-11T20:21:42.862Z,0
2023-02-11T20:26:49.135Z,0
2023-02-11T20:31:55.400Z,0
2023-02-11T20:37:01.655Z,0
2023-02-11T20:42:07.920Z,0
2023-02-11T20:47:14.186Z,0
2023-02-11T20:52:20.461Z,0
2023-02-11T20:57:26.763Z,0
2023-02-11T21:02:33.069Z,0
2023-02-11T21:07:39.260Z,0
2023-02-11T21:12:45.526Z,0
2023-02-11T21:17:51.783Z,0
2023-02-11T21:22:58.061Z,0
2023-02-11T21:28:04.538Z,0
2023-02-11T21:33:11.007Z,0
2023-02-11T21:38:17.481Z,0
2023-02-11T21:43:24.023Z,0
2023-02-11T21:48:30.422Z,0
2023-02-11T21:53:36.901Z,0
2023-02-11T21:58:43.385Z,0
2023-02-11T22:03:49.838Z,0
2023-02-11T22:08:56.344Z,0
2023-02-11T22:14:02.783Z,0
2023-02-11T22:19:09.351Z,0
2023-02-11T22:24:15.733Z,0
2023-02-11T22:29:22.194Z,0
2023-02-11T22:34:29.283Z,0
2023-02-11T22:39:36.205Z,0
2023-02-11T22:44:43.255Z,0
2023-02-11T22:49:50.233Z,0
2023-02-11T22:54:57.236Z,0
2023-02-11T23:00:04.242Z,0
2023-02-11T23:05:11.242Z,0
2023-02-11T23:10:18.270Z,0
2023-02-11T23:15:25.254Z,0
2023-02-11T23:20:32.267Z,0
2023-02-11T23:25:39.275Z,0
2023-02-11T23:30:46.275Z,0
2023-02-11T23:35:53.275Z,0
2023-02-11T23:41:01.144Z,0
2023-02-11T23:46:08.961Z,0
2023-02-11T23:51:16.794Z,0
2023-02-11T23:56:24.640Z,0
